首页
METAR-TAF:

METAR-TAF

机场 :

Vidalia Regional Airport

Vidalia, 喬治亞, 美国

纬度: 32-11-33N, 经度: 082-22-19W, 海拔: 84米

当前天气观测

该预报发布于30分钟前的20:55 UTC
风速9节,风向南转西南
温度 30°C
湿度 46%
气压 1016 hPa
能見度: 16.1公里
散云层高于3600英尺
阴天层高于10000英尺

METAR: KVDI 062055Z AUTO 20009KT 10SM SCT036 OVC100 30/17 A3000 RMK AO2

时间: 17:25 (21:25 UTC)


TAF: 丢失

超过4000个机场的气象观测和天气预报(METAR&TAF报告)。

可查询的气象台以黄色和红色小点在地图上表示。

将鼠标移到小点上方,可查看气象台名称。

然后点击查看天气观测和预报。

如需切换地图:点击带黑十字的绿色按钮放大地图;点击带横线的绿色按钮缩小地图;或者点击绿色箭头查看邻近地区的地图。


METAR-TAF: